sensor_id;sensor_type;location;lat;lon;timestamp;temperature;humidity
11446;DHT22;5779;64.178;15.432;2023-03-23T00:02:30;-3.50;99.90
11446;DHT22;5779;64.178;15.432;2023-03-23T00:05:19;-3.50;99.90
11446;DHT22;5779;64.178;15.432;2023-03-23T00:08:06;-3.50;99.90
11446;DHT22;5779;64.178;15.432;2023-03-23T00:10:53;-3.50;99.90
11446;DHT22;5779;64.178;15.432;2023-03-23T00:13:42;-3.50;99.90
11446;DHT22;5779;64.178;15.432;2023-03-23T00:16:30;-3.50;99.90
11446;DHT22;5779;64.178;15.432;2023-03-23T00:19:18;-3.50;99.90
11446;DHT22;5779;64.178;15.432;2023-03-23T00:22:07;-3.60;99.90
11446;DHT22;5779;64.178;15.432;2023-03-23T00:24:54;-3.50;99.90
11446;DHT22;5779;64.178;15.432;2023-03-23T00:27:41;-3.50;99.90
11446;DHT22;5779;64.178;15.432;2023-03-23T00:30:29;-3.50;99.90
11446;DHT22;5779;64.178;15.432;2023-03-23T00:33:16;-3.60;99.90
11446;DHT22;5779;64.178;15.432;2023-03-23T00:36:03;-3.50;99.90
11446;DHT22;5779;64.178;15.432;2023-03-23T00:38:51;-3.50;99.90
11446;DHT22;5779;64.178;15.432;2023-03-23T00:41:38;-3.60;99.90
11446;DHT22;5779;64.178;15.432;2023-03-23T00:44:25;-3.60;99.90
11446;DHT22;5779;64.178;15.432;2023-03-23T00:47:13;-3.60;99.90
11446;DHT22;5779;64.178;15.432;2023-03-23T00:50:02;-3.50;99.90
11446;DHT22;5779;64.178;15.432;2023-03-23T00:52:50;-3.50;99.90
11446;DHT22;5779;64.178;15.432;2023-03-23T00:55:40;-3.50;99.90
11446;DHT22;5779;64.178;15.432;2023-03-23T00:58:27;-3.50;99.90
11446;DHT22;5779;64.178;15.432;2023-03-23T01:01:14;-3.40;99.90
11446;DHT22;5779;64.178;15.432;2023-03-23T01:04:01;-3.50;99.90
11446;DHT22;5779;64.178;15.432;2023-03-23T01:06:50;-3.70;99.90
11446;DHT22;5779;64.178;15.432;2023-03-23T01:09:36;-3.70;99.90
11446;DHT22;5779;64.178;15.432;2023-03-23T01:12:26;-3.70;99.90
11446;DHT22;5779;64.178;15.432;2023-03-23T01:15:16;-3.70;99.90
11446;DHT22;5779;64.178;15.432;2023-03-23T01:18:03;-3.70;99.90
11446;DHT22;5779;64.178;15.432;2023-03-23T01:20:50;-3.80;99.90
11446;DHT22;5779;64.178;15.432;2023-03-23T01:23:37;-3.80;99.90
11446;DHT22;5779;64.178;15.432;2023-03-23T01:26:26;-3.90;99.90
11446;DHT22;5779;64.178;15.432;2023-03-23T01:29:15;-3.80;99.90
11446;DHT22;5779;64.178;15.432;2023-03-23T01:32:02;-3.80;99.90
11446;DHT22;5779;64.178;15.432;2023-03-23T01:34:49;-3.70;99.90
11446;DHT22;5779;64.178;15.432;2023-03-23T01:37:36;-3.70;99.90
11446;DHT22;5779;64.178;15.432;2023-03-23T01:40:23;-3.70;99.90
11446;DHT22;5779;64.178;15.432;2023-03-23T01:43:13;-3.80;99.90
11446;DHT22;5779;64.178;15.432;2023-03-23T01:46:02;-3.90;99.90
11446;DHT22;5779;64.178;15.432;2023-03-23T01:48:49;-3.70;99.90
11446;DHT22;5779;64.178;15.432;2023-03-23T01:51:40;-3.80;99.90
11446;DHT22;5779;64.178;15.432;2023-03-23T01:54:29;-3.80;99.90
11446;DHT22;5779;64.178;15.432;2023-03-23T01:57:17;-3.80;99.90
11446;DHT22;5779;64.178;15.432;2023-03-23T02:00:07;-3.70;99.90
11446;DHT22;5779;64.178;15.432;2023-03-23T02:03:01;-3.90;99.90
11446;DHT22;5779;64.178;15.432;2023-03-23T02:05:47;-3.80;99.90
11446;DHT22;5779;64.178;15.432;2023-03-23T02:08:35;-3.90;99.90
11446;DHT22;5779;64.178;15.432;2023-03-23T02:11:23;-3.80;99.90
11446;DHT22;5779;64.178;15.432;2023-03-23T02:14:09;-3.90;99.90
11446;DHT22;5779;64.178;15.432;2023-03-23T02:17:01;-4.00;99.90
11446;DHT22;5779;64.178;15.432;2023-03-23T02:20:13;-4.00;99.90
11446;DHT22;5779;64.178;15.432;2023-03-23T02:26:53;-4.00;99.90
11446;DHT22;5779;64.178;15.432;2023-03-23T02:30:07;-4.00;99.90
11446;DHT22;5779;64.178;15.432;2023-03-23T02:36:25;-4.10;99.90
11446;DHT22;5779;64.178;15.432;2023-03-23T02:39:19;-4.00;99.90
11446;DHT22;5779;64.178;15.432;2023-03-23T02:42:09;-4.00;99.90
11446;DHT22;5779;64.178;15.432;2023-03-23T02:44:58;-4.10;99.90
11446;DHT22;5779;64.178;15.432;2023-03-23T02:47:47;-4.10;99.90
11446;DHT22;5779;64.178;15.432;2023-03-23T02:50:37;-4.10;99.90
11446;DHT22;5779;64.178;15.432;2023-03-23T02:53:26;-4.10;99.90
11446;DHT22;5779;64.178;15.432;2023-03-23T02:56:14;-4.10;99.90
11446;DHT22;5779;64.178;15.432;2023-03-23T02:59:01;-4.10;99.90
11446;DHT22;5779;64.178;15.432;2023-03-23T03:01:57;-4.10;99.90
11446;DHT22;5779;64.178;15.432;2023-03-23T03:04:51;-4.20;99.90
11446;DHT22;5779;64.178;15.432;2023-03-23T03:07:49;-4.10;99.90
11446;DHT22;5779;64.178;15.432;2023-03-23T03:10:46;-4.20;99.90
11446;DHT22;5779;64.178;15.432;2023-03-23T03:13:42;-4.30;99.90
11446;DHT22;5779;64.178;15.432;2023-03-23T03:16:35;-4.40;99.90
11446;DHT22;5779;64.178;15.432;2023-03-23T03:19:26;-4.20;99.90
11446;DHT22;5779;64.178;15.432;2023-03-23T03:22:15;-4.20;99.90
11446;DHT22;5779;64.178;15.432;2023-03-23T03:25:06;-4.10;99.90
11446;DHT22;5779;64.178;15.432;2023-03-23T03:27:53;-4.10;99.90
11446;DHT22;5779;64.178;15.432;2023-03-23T03:30:43;-4.20;99.90
11446;DHT22;5779;64.178;15.432;2023-03-23T03:33:32;-4.30;99.90
11446;DHT22;5779;64.178;15.432;2023-03-23T03:36:23;-4.40;99.90
11446;DHT22;5779;64.178;15.432;2023-03-23T03:39:14;-4.40;99.90
11446;DHT22;5779;64.178;15.432;2023-03-23T03:42:04;-4.50;99.90
11446;DHT22;5779;64.178;15.432;2023-03-23T03:44:50;-4.50;99.90
11446;DHT22;5779;64.178;15.432;2023-03-23T03:47:38;-4.40;99.90
11446;DHT22;5779;64.178;15.432;2023-03-23T03:50:24;-4.50;99.90
11446;DHT22;5779;64.178;15.432;2023-03-23T03:53:11;-4.50;99.90
11446;DHT22;5779;64.178;15.432;2023-03-23T03:55:58;-4.40;99.90
11446;DHT22;5779;64.178;15.432;2023-03-23T03:58:47;-4.40;99.90
11446;DHT22;5779;64.178;15.432;2023-03-23T04:01:37;-4.50;99.90
11446;DHT22;5779;64.178;15.432;2023-03-23T04:04:24;-4.60;99.90
11446;DHT22;5779;64.178;15.432;2023-03-23T04:07:10;-4.60;99.90
11446;DHT22;5779;64.178;15.432;2023-03-23T04:09:58;-4.50;99.90
11446;DHT22;5779;64.178;15.432;2023-03-23T04:12:46;-4.50;99.90
11446;DHT22;5779;64.178;15.432;2023-03-23T04:15:34;-4.50;99.90
11446;DHT22;5779;64.178;15.432;2023-03-23T04:18:21;-4.70;99.90
11446;DHT22;5779;64.178;15.432;2023-03-23T04:21:10;-4.70;99.90
11446;DHT22;5779;64.178;15.432;2023-03-23T04:23:57;-4.70;99.90
11446;DHT22;5779;64.178;15.432;2023-03-23T04:26:46;-4.60;99.90
11446;DHT22;5779;64.178;15.432;2023-03-23T04:29:32;-4.60;99.90
11446;DHT22;5779;64.178;15.432;2023-03-23T04:32:21;-4.60;99.90
11446;DHT22;5779;64.178;15.432;2023-03-23T04:35:12;-4.60;99.90
11446;DHT22;5779;64.178;15.432;2023-03-23T04:37:59;-4.60;99.90
11446;DHT22;5779;64.178;15.432;2023-03-23T04:40:47;-4.70;99.90
11446;DHT22;5779;64.178;15.432;2023-03-23T04:43:36;-4.60;99.90
11446;DHT22;5779;64.178;15.432;2023-03-23T04:46:26;-4.70;99.90
11446;DHT22;5779;64.178;15.432;2023-03-23T04:49:16;-4.70;99.90
11446;DHT22;5779;64.178;15.432;2023-03-23T04:52:06;-4.70;99.90
11446;DHT22;5779;64.178;15.432;2023-03-23T04:54:53;-4.70;99.90
11446;DHT22;5779;64.178;15.432;2023-03-23T04:57:40;-4.60;99.90
11446;DHT22;5779;64.178;15.432;2023-03-23T05:00:27;-4.60;99.90
11446;DHT22;5779;64.178;15.432;2023-03-23T05:03:14;-4.60;99.90
11446;DHT22;5779;64.178;15.432;2023-03-23T05:06:03;-4.70;99.90
11446;DHT22;5779;64.178;15.432;2023-03-23T05:08:51;-4.60;99.90
11446;DHT22;5779;64.178;15.432;2023-03-23T05:11:38;-4.60;99.90
11446;DHT22;5779;64.178;15.432;2023-03-23T05:14:25;-4.80;99.90
11446;DHT22;5779;64.178;15.432;2023-03-23T05:17:12;-4.80;99.90
11446;DHT22;5779;64.178;15.432;2023-03-23T05:20:06;-4.70;99.90
11446;DHT22;5779;64.178;15.432;2023-03-23T05:22:56;-4.60;99.90
11446;DHT22;5779;64.178;15.432;2023-03-23T05:25:43;-4.70;99.90
11446;DHT22;5779;64.178;15.432;2023-03-23T05:28:32;-4.80;99.90
11446;DHT22;5779;64.178;15.432;2023-03-23T05:31:19;-4.70;99.90
11446;DHT22;5779;64.178;15.432;2023-03-23T05:34:06;-4.60;99.90
11446;DHT22;5779;64.178;15.432;2023-03-23T05:36:53;-4.50;99.90
11446;DHT22;5779;64.178;15.432;2023-03-23T05:39:41;-4.60;99.90
11446;DHT22;5779;64.178;15.432;2023-03-23T05:42:29;-4.70;99.90
11446;DHT22;5779;64.178;15.432;2023-03-23T05:45:17;-4.60;99.90
11446;DHT22;5779;64.178;15.432;2023-03-23T05:48:04;-4.60;99.90
11446;DHT22;5779;64.178;15.432;2023-03-23T05:50:51;-4.60;99.90
11446;DHT22;5779;64.178;15.432;2023-03-23T05:53:37;-4.70;99.90
11446;DHT22;5779;64.178;15.432;2023-03-23T05:56:26;-4.60;99.90
11446;DHT22;5779;64.178;15.432;2023-03-23T05:59:13;-4.70;99.90
11446;DHT22;5779;64.178;15.432;2023-03-23T06:02:00;-4.70;99.90
11446;DHT22;5779;64.178;15.432;2023-03-23T06:04:47;-4.70;99.90
11446;DHT22;5779;64.178;15.432;2023-03-23T06:07:34;-4.70;99.90
11446;DHT22;5779;64.178;15.432;2023-03-23T06:10:21;-4.80;99.90
11446;DHT22;5779;64.178;15.432;2023-03-23T06:13:10;-4.70;99.90
11446;DHT22;5779;64.178;15.432;2023-03-23T06:15:57;-4.60;99.90
11446;DHT22;5779;64.178;15.432;2023-03-23T06:18:44;-4.50;99.90
11446;DHT22;5779;64.178;15.432;2023-03-23T06:21:32;-4.30;99.90
11446;DHT22;5779;64.178;15.432;2023-03-23T06:24:19;-4.20;99.90
11446;DHT22;5779;64.178;15.432;2023-03-23T06:27:06;-4.20;99.90
11446;DHT22;5779;64.178;15.432;2023-03-23T06:29:54;-4.30;99.90
11446;DHT22;5779;64.178;15.432;2023-03-23T06:32:42;-4.20;99.90
11446;DHT22;5779;64.178;15.432;2023-03-23T06:35:31;-4.20;99.90
11446;DHT22;5779;64.178;15.432;2023-03-23T06:38:18;-4.20;99.90
11446;DHT22;5779;64.178;15.432;2023-03-23T06:41:05;-4.20;99.90
11446;DHT22;5779;64.178;15.432;2023-03-23T06:43:52;-4.10;99.90
11446;DHT22;5779;64.178;15.432;2023-03-23T06:46:41;-4.20;99.90
11446;DHT22;5779;64.178;15.432;2023-03-23T06:49:28;-4.30;99.90
11446;DHT22;5779;64.178;15.432;2023-03-23T06:52:15;-4.10;99.90
11446;DHT22;5779;64.178;15.432;2023-03-23T06:55:03;-3.90;99.90
11446;DHT22;5779;64.178;15.432;2023-03-23T06:57:50;-3.60;99.90
11446;DHT22;5779;64.178;15.432;2023-03-23T07:00:37;-3.70;99.90
11446;DHT22;5779;64.178;15.432;2023-03-23T07:03:27;-4.10;99.90
11446;DHT22;5779;64.178;15.432;2023-03-23T07:06:15;-4.00;99.90
11446;DHT22;5779;64.178;15.432;2023-03-23T07:09:02;-4.20;99.90
11446;DHT22;5779;64.178;15.432;2023-03-23T07:11:49;-4.10;99.90
11446;DHT22;5779;64.178;15.432;2023-03-23T07:14:37;-4.00;99.90
11446;DHT22;5779;64.178;15.432;2023-03-23T07:17:24;-4.00;99.90
11446;DHT22;5779;64.178;15.432;2023-03-23T07:20:12;-4.10;99.90
11446;DHT22;5779;64.178;15.432;2023-03-23T07:22:59;-3.90;99.90
11446;DHT22;5779;64.178;15.432;2023-03-23T07:25:47;-3.70;99.90
11446;DHT22;5779;64.178;15.432;2023-03-23T07:28:34;-3.90;99.90
11446;DHT22;5779;64.178;15.432;2023-03-23T07:31:21;-4.00;99.90
11446;DHT22;5779;64.178;15.432;2023-03-23T07:34:08;-3.90;99.90
11446;DHT22;5779;64.178;15.432;2023-03-23T07:36:57;-3.90;99.90
11446;DHT22;5779;64.178;15.432;2023-03-23T07:39:44;-4.10;99.90
11446;DHT22;5779;64.178;15.432;2023-03-23T07:42:30;-4.10;99.90
11446;DHT22;5779;64.178;15.432;2023-03-23T07:45:17;-4.10;99.90
11446;DHT22;5779;64.178;15.432;2023-03-23T07:48:04;-4.10;99.90
11446;DHT22;5779;64.178;15.432;2023-03-23T07:50:50;-4.00;99.90
11446;DHT22;5779;64.178;15.432;2023-03-23T07:53:39;-4.10;99.90
11446;DHT22;5779;64.178;15.432;2023-03-23T07:56:26;-4.00;99.90
11446;DHT22;5779;64.178;15.432;2023-03-23T07:59:13;-4.00;99.90
11446;DHT22;5779;64.178;15.432;2023-03-23T08:02:00;-4.00;99.90
11446;DHT22;5779;64.178;15.432;2023-03-23T08:04:47;-4.00;99.90
11446;DHT22;5779;64.178;15.432;2023-03-23T08:07:34;-4.10;99.90
11446;DHT22;5779;64.178;15.432;2023-03-23T08:10:23;-3.90;99.90
11446;DHT22;5779;64.178;15.432;2023-03-23T08:13:11;-4.00;99.90
11446;DHT22;5779;64.178;15.432;2023-03-23T08:15:58;-3.80;99.90
11446;DHT22;5779;64.178;15.432;2023-03-23T08:18:45;-3.80;99.90
11446;DHT22;5779;64.178;15.432;2023-03-23T08:21:32;-3.80;99.90
11446;DHT22;5779;64.178;15.432;2023-03-23T08:24:20;-3.40;99.90
11446;DHT22;5779;64.178;15.432;2023-03-23T08:27:08;-3.20;99.90
11446;DHT22;5779;64.178;15.432;2023-03-23T08:29:55;-2.90;99.90
11446;DHT22;5779;64.178;15.432;2023-03-23T08:32:43;-2.90;99.90
11446;DHT22;5779;64.178;15.432;2023-03-23T08:35:30;-2.90;99.90
11446;DHT22;5779;64.178;15.432;2023-03-23T08:38:17;-2.90;99.90
11446;DHT22;5779;64.178;15.432;2023-03-23T08:41:06;-3.00;99.90
11446;DHT22;5779;64.178;15.432;2023-03-23T08:43:55;-3.00;99.90
11446;DHT22;5779;64.178;15.432;2023-03-23T08:46:42;-3.00;99.90
11446;DHT22;5779;64.178;15.432;2023-03-23T08:49:30;-3.20;99.90
11446;DHT22;5779;64.178;15.432;2023-03-23T08:52:17;-3.10;99.90
11446;DHT22;5779;64.178;15.432;2023-03-23T08:55:05;-3.20;99.90
11446;DHT22;5779;64.178;15.432;2023-03-23T08:57:53;-3.30;99.90
11446;DHT22;5779;64.178;15.432;2023-03-23T09:00:43;-3.20;99.90
11446;DHT22;5779;64.178;15.432;2023-03-23T09:03:30;-3.20;99.90
11446;DHT22;5779;64.178;15.432;2023-03-23T09:06:17;-3.00;99.90
11446;DHT22;5779;64.178;15.432;2023-03-23T09:09:04;-3.20;99.90
11446;DHT22;5779;64.178;15.432;2023-03-23T09:11:53;-3.50;99.90
11446;DHT22;5779;64.178;15.432;2023-03-23T09:14:40;-3.60;99.90
11446;DHT22;5779;64.178;15.432;2023-03-23T09:17:29;-3.40;99.90
11446;DHT22;5779;64.178;15.432;2023-03-23T09:20:18;-3.20;99.90
11446;DHT22;5779;64.178;15.432;2023-03-23T09:23:05;-3.10;99.90
11446;DHT22;5779;64.178;15.432;2023-03-23T09:25:52;-3.00;99.90
11446;DHT22;5779;64.178;15.432;2023-03-23T09:28:39;-3.10;99.90
11446;DHT22;5779;64.178;15.432;2023-03-23T09:31:25;-3.30;99.90
11446;DHT22;5779;64.178;15.432;2023-03-23T09:34:14;-3.30;99.90
11446;DHT22;5779;64.178;15.432;2023-03-23T09:37:01;-3.20;99.90
11446;DHT22;5779;64.178;15.432;2023-03-23T09:39:49;-3.00;99.90
11446;DHT22;5779;64.178;15.432;2023-03-23T09:42:46;-2.90;99.90
11446;DHT22;5779;64.178;15.432;2023-03-23T09:45:39;-3.00;99.90
11446;DHT22;5779;64.178;15.432;2023-03-23T09:48:35;-3.00;99.90
11446;DHT22;5779;64.178;15.432;2023-03-23T09:51:41;-3.00;99.90
11446;DHT22;5779;64.178;15.432;2023-03-23T09:54:32;-3.10;99.90
11446;DHT22;5779;64.178;15.432;2023-03-23T09:57:27;-3.00;99.90
11446;DHT22;5779;64.178;15.432;2023-03-23T10:00:18;-2.90;99.90
11446;DHT22;5779;64.178;15.432;2023-03-23T10:03:12;-2.90;99.90
11446;DHT22;5779;64.178;15.432;2023-03-23T10:06:00;-2.90;99.90
11446;DHT22;5779;64.178;15.432;2023-03-23T10:08:52;-2.90;99.90
11446;DHT22;5779;64.178;15.432;2023-03-23T10:11:49;-2.90;99.90
11446;DHT22;5779;64.178;15.432;2023-03-23T10:14:50;-3.00;99.90
11446;DHT22;5779;64.178;15.432;2023-03-23T10:17:44;-2.90;99.90
11446;DHT22;5779;64.178;15.432;2023-03-23T10:20:36;-2.80;99.90
11446;DHT22;5779;64.178;15.432;2023-03-23T10:23:43;-3.10;99.90
11446;DHT22;5779;64.178;15.432;2023-03-23T10:26:40;-3.20;99.90
11446;DHT22;5779;64.178;15.432;2023-03-23T10:29:34;-3.30;99.90
11446;DHT22;5779;64.178;15.432;2023-03-23T10:32:40;-3.20;99.90
11446;DHT22;5779;64.178;15.432;2023-03-23T10:35:31;-3.20;99.90
11446;DHT22;5779;64.178;15.432;2023-03-23T10:38:21;-3.10;99.90
11446;DHT22;5779;64.178;15.432;2023-03-23T10:41:12;-3.00;99.90
11446;DHT22;5779;64.178;15.432;2023-03-23T10:44:04;-2.60;99.90
11446;DHT22;5779;64.178;15.432;2023-03-23T10:46:59;-2.40;99.90
11446;DHT22;5779;64.178;15.432;2023-03-23T10:49:49;-2.30;99.90
11446;DHT22;5779;64.178;15.432;2023-03-23T10:52:38;-2.50;99.90
11446;DHT22;5779;64.178;15.432;2023-03-23T10:55:36;-2.70;99.90
11446;DHT22;5779;64.178;15.432;2023-03-23T10:58:26;-3.20;99.90
11446;DHT22;5779;64.178;15.432;2023-03-23T11:01:18;-3.10;99.90
11446;DHT22;5779;64.178;15.432;2023-03-23T11:04:12;-3.10;99.90
11446;DHT22;5779;64.178;15.432;2023-03-23T11:07:01;-3.20;99.90
11446;DHT22;5779;64.178;15.432;2023-03-23T11:09:54;-3.20;99.90
11446;DHT22;5779;64.178;15.432;2023-03-23T11:12:44;-3.00;99.90
11446;DHT22;5779;64.178;15.432;2023-03-23T11:15:34;-3.00;99.90
11446;DHT22;5779;64.178;15.432;2023-03-23T11:18:26;-3.10;99.90
11446;DHT22;5779;64.178;15.432;2023-03-23T11:21:15;-3.00;99.90
11446;DHT22;5779;64.178;15.432;2023-03-23T11:24:02;-3.00;99.90
11446;DHT22;5779;64.178;15.432;2023-03-23T11:26:49;-2.80;99.90
11446;DHT22;5779;64.178;15.432;2023-03-23T11:29:47;-2.70;99.90
11446;DHT22;5779;64.178;15.432;2023-03-23T11:32:35;-2.90;99.90
11446;DHT22;5779;64.178;15.432;2023-03-23T11:35:27;-2.70;99.90
11446;DHT22;5779;64.178;15.432;2023-03-23T11:38:18;-2.70;99.90
11446;DHT22;5779;64.178;15.432;2023-03-23T11:41:10;-2.50;99.90
11446;DHT22;5779;64.178;15.432;2023-03-23T11:44:07;-2.40;99.90
11446;DHT22;5779;64.178;15.432;2023-03-23T11:47:01;-2.30;99.90
11446;DHT22;5779;64.178;15.432;2023-03-23T11:49:55;-2.40;99.90
11446;DHT22;5779;64.178;15.432;2023-03-23T11:52:46;-2.10;99.90
11446;DHT22;5779;64.178;15.432;2023-03-23T11:55:49;-2.30;99.90
11446;DHT22;5779;64.178;15.432;2023-03-23T11:58:37;-2.30;99.90
11446;DHT22;5779;64.178;15.432;2023-03-23T12:01:36;-2.50;99.90
11446;DHT22;5779;64.178;15.432;2023-03-23T12:04:37;-2.50;99.90
11446;DHT22;5779;64.178;15.432;2023-03-23T12:07:49;-2.80;99.90
11446;DHT22;5779;64.178;15.432;2023-03-23T12:10:45;-2.80;99.90
11446;DHT22;5779;64.178;15.432;2023-03-23T12:13:46;-2.90;99.90
11446;DHT22;5779;64.178;15.432;2023-03-23T12:16:50;-2.70;99.90
11446;DHT22;5779;64.178;15.432;2023-03-23T12:19:45;-2.80;99.90
11446;DHT22;5779;64.178;15.432;2023-03-23T12:22:42;-3.10;99.90
11446;DHT22;5779;64.178;15.432;2023-03-23T12:25:58;-3.20;99.90
11446;DHT22;5779;64.178;15.432;2023-03-23T12:29:12;-3.20;99.90
11446;DHT22;5779;64.178;15.432;2023-03-23T12:32:16;-3.00;99.90
11446;DHT22;5779;64.178;15.432;2023-03-23T12:35:24;-3.20;99.90
11446;DHT22;5779;64.178;15.432;2023-03-23T12:38:28;-3.10;99.90
11446;DHT22;5779;64.178;15.432;2023-03-23T12:41:25;-2.80;99.90
11446;DHT22;5779;64.178;15.432;2023-03-23T12:44:15;-2.30;99.90
11446;DHT22;5779;64.178;15.432;2023-03-23T12:47:25;-1.70;99.90
11446;DHT22;5779;64.178;15.432;2023-03-23T12:50:18;-1.80;99.90
11446;DHT22;5779;64.178;15.432;2023-03-23T12:53:10;-1.50;99.90
11446;DHT22;5779;64.178;15.432;2023-03-23T12:56:10;-1.50;99.90
11446;DHT22;5779;64.178;15.432;2023-03-23T12:59:11;-1.50;99.90
11446;DHT22;5779;64.178;15.432;2023-03-23T13:02:03;-2.00;99.90
11446;DHT22;5779;64.178;15.432;2023-03-23T13:04:57;-2.70;99.90
11446;DHT22;5779;64.178;15.432;2023-03-23T13:07:49;-2.80;99.90
11446;DHT22;5779;64.178;15.432;2023-03-23T13:10:41;-2.70;99.90
11446;DHT22;5779;64.178;15.432;2023-03-23T13:13:43;-2.50;99.90
11446;DHT22;5779;64.178;15.432;2023-03-23T13:16:38;-2.00;99.90
11446;DHT22;5779;64.178;15.432;2023-03-23T13:19:32;-2.20;99.90
11446;DHT22;5779;64.178;15.432;2023-03-23T13:22:23;-2.30;99.90
11446;DHT22;5779;64.178;15.432;2023-03-23T13:25:17;-2.60;99.90
11446;DHT22;5779;64.178;15.432;2023-03-23T13:28:04;-2.50;99.90
11446;DHT22;5779;64.178;15.432;2023-03-23T13:30:56;-2.30;99.90
11446;DHT22;5779;64.178;15.432;2023-03-23T13:33:50;-2.50;99.90
11446;DHT22;5779;64.178;15.432;2023-03-23T13:36:38;-2.70;99.90
11446;DHT22;5779;64.178;15.432;2023-03-23T13:39:31;-2.80;99.90
11446;DHT22;5779;64.178;15.432;2023-03-23T13:42:21;-3.20;99.90
11446;DHT22;5779;64.178;15.432;2023-03-23T13:45:20;-3.20;99.90
11446;DHT22;5779;64.178;15.432;2023-03-23T13:48:20;-3.30;99.90
11446;DHT22;5779;64.178;15.432;2023-03-23T13:54:19;-3.30;99.90
11446;DHT22;5779;64.178;15.432;2023-03-23T13:57:23;-3.20;99.90
11446;DHT22;5779;64.178;15.432;2023-03-23T14:00:36;-3.40;99.90
11446;DHT22;5779;64.178;15.432;2023-03-23T14:03:25;-3.60;99.90
11446;DHT22;5779;64.178;15.432;2023-03-23T14:06:15;-3.60;99.90
11446;DHT22;5779;64.178;15.432;2023-03-23T14:09:12;-3.50;99.90
11446;DHT22;5779;64.178;15.432;2023-03-23T14:12:04;-3.70;99.90
11446;DHT22;5779;64.178;15.432;2023-03-23T14:14:57;-3.80;99.90
11446;DHT22;5779;64.178;15.432;2023-03-23T14:17:47;-3.70;99.90
11446;DHT22;5779;64.178;15.432;2023-03-23T14:20:37;-3.60;99.90
11446;DHT22;5779;64.178;15.432;2023-03-23T14:23:25;-3.60;99.90
11446;DHT22;5779;64.178;15.432;2023-03-23T14:26:17;-3.50;99.90
11446;DHT22;5779;64.178;15.432;2023-03-23T14:29:05;-3.60;99.90
11446;DHT22;5779;64.178;15.432;2023-03-23T14:31:55;-3.60;99.90
11446;DHT22;5779;64.178;15.432;2023-03-23T14:34:43;-3.50;99.90
11446;DHT22;5779;64.178;15.432;2023-03-23T14:37:31;-3.40;99.90
11446;DHT22;5779;64.178;15.432;2023-03-23T14:40:20;-3.20;99.90
11446;DHT22;5779;64.178;15.432;2023-03-23T14:43:10;-3.20;99.90
11446;DHT22;5779;64.178;15.432;2023-03-23T14:46:05;-3.20;99.90
11446;DHT22;5779;64.178;15.432;2023-03-23T14:48:52;-3.20;99.90
11446;DHT22;5779;64.178;15.432;2023-03-23T14:51:47;-3.30;99.90
11446;DHT22;5779;64.178;15.432;2023-03-23T14:54:34;-3.40;99.90
11446;DHT22;5779;64.178;15.432;2023-03-23T14:57:28;-3.50;99.90
11446;DHT22;5779;64.178;15.432;2023-03-23T15:00:21;-3.60;99.90
11446;DHT22;5779;64.178;15.432;2023-03-23T15:03:12;-3.70;99.90
11446;DHT22;5779;64.178;15.432;2023-03-23T15:06:03;-3.70;99.90
11446;DHT22;5779;64.178;15.432;2023-03-23T15:08:54;-3.70;99.90
11446;DHT22;5779;64.178;15.432;2023-03-23T15:11:42;-3.70;99.90
11446;DHT22;5779;64.178;15.432;2023-03-23T15:14:31;-3.70;99.90
11446;DHT22;5779;64.178;15.432;2023-03-23T15:17:22;-3.80;99.90
11446;DHT22;5779;64.178;15.432;2023-03-23T15:20:11;-3.90;99.90
11446;DHT22;5779;64.178;15.432;2023-03-23T15:23:06;-3.80;99.90
11446;DHT22;5779;64.178;15.432;2023-03-23T15:25:54;-3.70;99.90
11446;DHT22;5779;64.178;15.432;2023-03-23T15:28:41;-3.60;99.90
11446;DHT22;5779;64.178;15.432;2023-03-23T15:31:28;-3.50;99.90
11446;DHT22;5779;64.178;15.432;2023-03-23T15:34:28;-3.40;99.90
11446;DHT22;5779;64.178;15.432;2023-03-23T15:37:20;-3.50;99.90
11446;DHT22;5779;64.178;15.432;2023-03-23T15:40:15;-3.50;99.90
11446;DHT22;5779;64.178;15.432;2023-03-23T15:43:07;-3.50;99.90
11446;DHT22;5779;64.178;15.432;2023-03-23T15:45:56;-3.60;99.90
11446;DHT22;5779;64.178;15.432;2023-03-23T15:48:47;-3.60;99.90
11446;DHT22;5779;64.178;15.432;2023-03-23T15:51:36;-3.70;99.90
11446;DHT22;5779;64.178;15.432;2023-03-23T15:54:23;-3.80;99.90
11446;DHT22;5779;64.178;15.432;2023-03-23T15:57:10;-3.90;99.90
11446;DHT22;5779;64.178;15.432;2023-03-23T15:59:57;-3.80;99.90
11446;DHT22;5779;64.178;15.432;2023-03-23T16:02:45;-3.90;99.90
11446;DHT22;5779;64.178;15.432;2023-03-23T16:05:33;-3.90;99.90
11446;DHT22;5779;64.178;15.432;2023-03-23T16:08:21;-3.80;99.90
11446;DHT22;5779;64.178;15.432;2023-03-23T16:11:10;-3.90;99.90
11446;DHT22;5779;64.178;15.432;2023-03-23T16:13:57;-3.90;99.90
11446;DHT22;5779;64.178;15.432;2023-03-23T16:16:46;-3.80;99.90
11446;DHT22;5779;64.178;15.432;2023-03-23T16:19:33;-3.80;99.90
11446;DHT22;5779;64.178;15.432;2023-03-23T16:22:20;-3.90;99.90
11446;DHT22;5779;64.178;15.432;2023-03-23T16:25:09;-4.00;99.90
11446;DHT22;5779;64.178;15.432;2023-03-23T16:27:55;-4.00;99.90
11446;DHT22;5779;64.178;15.432;2023-03-23T16:30:43;-4.10;99.90
11446;DHT22;5779;64.178;15.432;2023-03-23T16:33:30;-4.10;99.90
11446;DHT22;5779;64.178;15.432;2023-03-23T16:36:17;-3.90;99.90
11446;DHT22;5779;64.178;15.432;2023-03-23T16:39:04;-4.00;99.90
11446;DHT22;5779;64.178;15.432;2023-03-23T16:41:52;-3.90;99.90
11446;DHT22;5779;64.178;15.432;2023-03-23T16:44:39;-4.00;99.90
11446;DHT22;5779;64.178;15.432;2023-03-23T16:47:26;-4.00;99.90
11446;DHT22;5779;64.178;15.432;2023-03-23T16:50:14;-4.00;99.90
11446;DHT22;5779;64.178;15.432;2023-03-23T16:53:02;-4.00;99.90
11446;DHT22;5779;64.178;15.432;2023-03-23T16:55:50;-4.00;99.90
11446;DHT22;5779;64.178;15.432;2023-03-23T16:58:38;-4.10;99.90
11446;DHT22;5779;64.178;15.432;2023-03-23T17:01:26;-4.10;99.90
11446;DHT22;5779;64.178;15.432;2023-03-23T17:04:13;-4.20;99.90
11446;DHT22;5779;64.178;15.432;2023-03-23T17:07:00;-4.10;99.90
11446;DHT22;5779;64.178;15.432;2023-03-23T17:09:47;-4.10;99.90
11446;DHT22;5779;64.178;15.432;2023-03-23T17:12:34;-4.10;99.90
11446;DHT22;5779;64.178;15.432;2023-03-23T17:15:22;-4.20;99.90
11446;DHT22;5779;64.178;15.432;2023-03-23T17:18:09;-4.10;99.90
11446;DHT22;5779;64.178;15.432;2023-03-23T17:20:56;-4.00;99.90
11446;DHT22;5779;64.178;15.432;2023-03-23T17:23:43;-4.10;99.90
11446;DHT22;5779;64.178;15.432;2023-03-23T17:26:30;-4.10;99.90
11446;DHT22;5779;64.178;15.432;2023-03-23T17:29:17;-4.20;99.90
11446;DHT22;5779;64.178;15.432;2023-03-23T17:32:05;-4.10;99.90
11446;DHT22;5779;64.178;15.432;2023-03-23T17:34:52;-4.10;99.90
11446;DHT22;5779;64.178;15.432;2023-03-23T17:37:39;-4.10;99.90
11446;DHT22;5779;64.178;15.432;2023-03-23T17:40:27;-4.10;99.90
11446;DHT22;5779;64.178;15.432;2023-03-23T17:43:14;-4.00;99.90
11446;DHT22;5779;64.178;15.432;2023-03-23T17:46:01;-4.10;99.90
11446;DHT22;5779;64.178;15.432;2023-03-23T17:48:50;-4.00;99.90
11446;DHT22;5779;64.178;15.432;2023-03-23T17:51:37;-4.10;99.90
11446;DHT22;5779;64.178;15.432;2023-03-23T17:54:24;-4.00;99.90
11446;DHT22;5779;64.178;15.432;2023-03-23T17:57:13;-4.00;99.90
11446;DHT22;5779;64.178;15.432;2023-03-23T18:00:01;-4.00;99.90
11446;DHT22;5779;64.178;15.432;2023-03-23T18:02:48;-4.10;99.90
11446;DHT22;5779;64.178;15.432;2023-03-23T18:05:36;-4.10;99.90